createdAt,value
2022-10-09T00:00:40.180Z,64.13
2022-10-09T00:03:07.280Z,64.10
2022-10-09T00:05:33.934Z,64.04
2022-10-09T00:08:00.518Z,63.57
2022-10-09T00:10:27.319Z,63.76
2022-10-09T00:12:53.999Z,64.02
2022-10-09T00:15:20.589Z,63.32
2022-10-09T00:17:47.155Z,63.45
2022-10-09T00:20:13.832Z,63.65
2022-10-09T00:22:40.421Z,63.21
2022-10-09T00:25:07.244Z,63.86
2022-10-09T00:27:33.833Z,63.46
2022-10-09T00:30:00.419Z,63.82
2022-10-09T00:32:26.996Z,63.95
2022-10-09T00:34:53.572Z,63.62
2022-10-09T00:37:20.141Z,63.71
2022-10-09T00:39:46.757Z,63.43
2022-10-09T00:42:13.961Z,63.19
2022-10-09T00:44:46.680Z,63.15
2022-10-09T00:47:21.038Z,63.54
2022-10-09T00:49:48.435Z,63.65
2022-10-09T00:52:15.222Z,63.51
2022-10-09T00:54:42.610Z,63.75
2022-10-09T00:57:09.592Z,63.57
2022-10-09T00:59:36.709Z,64.07
2022-10-09T01:02:03.717Z,63.58
2022-10-09T01:04:30.980Z,63.66
2022-10-09T01:07:24.142Z,63.77
2022-10-09T01:10:08.954Z,63.61
2022-10-09T01:12:38.547Z,63.78
2022-10-09T01:15:21.961Z,63.67
2022-10-09T01:17:54.174Z,64.04
2022-10-09T01:20:29.825Z,63.17
2022-10-09T01:23:27.326Z,63.50
2022-10-09T01:26:24.778Z,62.97
2022-10-09T01:28:54.302Z,63.37
2022-10-09T01:31:21.996Z,63.62
2022-10-09T01:33:48.810Z,63.74
2022-10-09T01:36:16.316Z,63.53
2022-10-09T01:38:44.041Z,63.56
2022-10-09T01:41:10.683Z,63.51
2022-10-09T01:43:37.296Z,63.59
2022-10-09T01:46:26.864Z,63.92
2022-10-09T01:49:30.769Z,63.72
2022-10-09T01:52:07.784Z,63.57
2022-10-09T01:54:54.877Z,63.67
2022-10-09T01:57:32.798Z,63.37
2022-10-09T02:00:00.065Z,63.83
2022-10-09T02:02:27.164Z,63.10
2022-10-09T02:04:54.026Z,63.40
2022-10-09T02:07:21.118Z,63.13
2022-10-09T02:09:47.707Z,63.00
2022-10-09T02:12:15.529Z,63.31
2022-10-09T02:14:42.130Z,63.11
2022-10-09T02:17:19.839Z,63.45
2022-10-09T02:19:57.052Z,62.90
2022-10-09T02:22:26.261Z,62.90
2022-10-09T02:24:53.172Z,63.22
2022-10-09T02:27:21.611Z,63.22
2022-10-09T02:29:49.318Z,63.33
2022-10-09T02:32:16.121Z,63.27
2022-10-09T02:34:43.238Z,63.03
2022-10-09T02:37:09.870Z,62.94
2022-10-09T02:39:36.924Z,63.27
2022-10-09T02:42:04.353Z,63.11
2022-10-09T02:44:30.917Z,62.98
2022-10-09T02:46:57.508Z,63.04
2022-10-09T02:49:24.254Z,62.95
2022-10-09T02:51:51.018Z,62.40
2022-10-09T02:54:17.650Z,62.59
2022-10-09T02:56:44.223Z,62.14
2022-10-09T02:59:10.903Z,62.41
2022-10-09T03:01:37.583Z,62.79
2022-10-09T03:04:04.801Z,62.15
2022-10-09T03:06:31.860Z,62.27
2022-10-09T03:08:58.513Z,62.41
2022-10-09T03:11:25.830Z,62.29
2022-10-09T03:13:52.826Z,62.54
2022-10-09T03:16:21.579Z,62.33
2022-10-09T03:18:49.162Z,62.15
2022-10-09T03:21:18.680Z,61.78
2022-10-09T03:23:45.270Z,61.88
2022-10-09T03:26:14.497Z,61.18
2022-10-09T03:28:43.261Z,61.23
2022-10-09T03:31:18.967Z,61.74
2022-10-09T03:33:54.181Z,61.58
2022-10-09T03:36:20.768Z,61.64
2022-10-09T03:38:47.353Z,61.80
2022-10-09T03:41:13.941Z,61.11
2022-10-09T03:43:40.516Z,61.49
2022-10-09T03:46:08.519Z,61.62
2022-10-09T03:48:35.985Z,61.65
2022-10-09T03:51:03.296Z,61.92
2022-10-09T03:53:29.968Z,61.15
2022-10-09T03:55:56.569Z,61.21
2022-10-09T03:58:23.592Z,61.69
2022-10-09T04:00:52.021Z,61.78
2022-10-09T04:03:19.337Z,61.89
2022-10-09T04:05:45.929Z,61.44
2022-10-09T04:08:12.632Z,61.23
2022-10-09T04:10:39.227Z,61.16
2022-10-09T04:13:06.221Z,61.70
2022-10-09T04:15:32.820Z,62.00
2022-10-09T04:17:59.439Z,61.44
2022-10-09T04:20:25.999Z,61.50
2022-10-09T04:22:52.607Z,61.63
2022-10-09T04:25:19.203Z,62.23
2022-10-09T04:27:45.809Z,62.26
2022-10-09T04:30:12.870Z,61.26
2022-10-09T04:32:39.450Z,61.29
2022-10-09T04:35:06.569Z,61.52
2022-10-09T04:37:33.211Z,61.70
2022-10-09T04:39:59.830Z,61.61
2022-10-09T04:42:26.409Z,61.53
2022-10-09T04:44:53.050Z,61.33
2022-10-09T04:47:19.638Z,60.65
2022-10-09T04:49:46.300Z,61.14
2022-10-09T04:52:12.845Z,61.18
2022-10-09T04:54:39.442Z,61.30
2022-10-09T04:57:06.006Z,60.68
2022-10-09T04:59:32.599Z,60.76
2022-10-09T05:01:59.252Z,60.07
2022-10-09T05:04:25.897Z,61.02
2022-10-09T05:06:52.486Z,60.43
2022-10-09T05:09:19.127Z,60.89
2022-10-09T05:11:45.726Z,60.18
2022-10-09T05:14:12.282Z,60.59
2022-10-09T05:16:55.279Z,60.99
2022-10-09T05:19:25.883Z,61.06
2022-10-09T05:21:52.529Z,60.62
2022-10-09T05:24:19.211Z,60.24
2022-10-09T05:26:45.846Z,60.68
2022-10-09T05:29:12.415Z,60.21
2022-10-09T05:31:39.096Z,60.71
2022-10-09T05:34:05.816Z,60.20
2022-10-09T05:36:32.436Z,60.25
2022-10-09T05:39:01.162Z,60.55
2022-10-09T05:41:29.579Z,59.90
2022-10-09T05:44:01.345Z,60.29
2022-10-09T05:46:29.808Z,60.07
2022-10-09T05:48:58.488Z,60.15
2022-10-09T05:51:30.508Z,60.35
2022-10-09T05:53:57.874Z,60.13
2022-10-09T05:56:29.598Z,59.69
2022-10-09T05:58:58.340Z,60.22
2022-10-09T06:01:27.310Z,59.61
2022-10-09T06:03:56.150Z,59.64
2022-10-09T06:06:25.480Z,59.94
2022-10-09T06:08:52.357Z,59.43
2022-10-09T06:11:24.581Z,60.18
2022-10-09T06:13:52.326Z,59.67
2022-10-09T06:16:19.087Z,59.90
2022-10-09T06:18:49.322Z,59.67
2022-10-09T06:21:16.932Z,60.15
2022-10-09T06:23:43.732Z,60.10
2022-10-09T06:26:13.884Z,60.26
2022-10-09T06:28:41.066Z,60.16
2022-10-09T06:31:09.965Z,60.06
2022-10-09T06:33:38.629Z,60.12
2022-10-09T06:36:10.231Z,60.38
2022-10-09T06:38:38.321Z,59.96
2022-10-09T06:41:10.112Z,60.75
2022-10-09T06:43:36.697Z,60.74
2022-10-09T06:46:05.631Z,60.79
2022-10-09T06:48:33.176Z,61.10
2022-10-09T06:51:04.662Z,61.04
2022-10-09T06:53:34.882Z,61.41
2022-10-09T06:56:01.437Z,61.35
2022-10-09T06:58:28.248Z,61.36
2022-10-09T07:01:15.098Z,61.67
2022-10-09T07:03:44.015Z,61.61
2022-10-09T07:06:14.584Z,61.78
2022-10-09T07:08:43.107Z,61.29
2022-10-09T07:11:20.910Z,61.58
2022-10-09T07:13:49.986Z,61.85
2022-10-09T07:16:21.963Z,61.94
2022-10-09T07:18:48.961Z,62.14
2022-10-09T07:21:15.741Z,62.56
2022-10-09T07:23:42.970Z,62.06
2022-10-09T07:26:18.311Z,62.24
2022-10-09T07:28:46.057Z,62.30
2022-10-09T07:31:13.624Z,62.70
2022-10-09T07:33:41.803Z,62.41
2022-10-09T07:36:09.900Z,62.69
2022-10-09T07:38:36.638Z,62.48
2022-10-09T07:41:08.684Z,62.40
2022-10-09T07:43:36.266Z,62.65
2022-10-09T07:46:04.477Z,62.94
2022-10-09T07:48:31.521Z,62.39
2022-10-09T07:50:58.103Z,62.49
2022-10-09T07:53:24.856Z,62.86
2022-10-09T07:55:51.433Z,63.21
2022-10-09T07:58:18.132Z,63.37
2022-10-09T08:00:44.690Z,63.15
2022-10-09T08:03:11.378Z,63.04
2022-10-09T08:05:38.058Z,63.18
2022-10-09T08:08:04.703Z,63.16
2022-10-09T08:10:32.095Z,63.13
2022-10-09T08:12:58.780Z,63.42
2022-10-09T08:15:26.203Z,63.32
2022-10-09T08:17:53.871Z,63.29
2022-10-09T08:20:20.597Z,63.26
2022-10-09T08:22:47.581Z,63.20
2022-10-09T08:25:14.430Z,63.40
2022-10-09T08:27:40.976Z,63.52
2022-10-09T08:30:08.518Z,63.64
2022-10-09T08:32:35.248Z,63.49
2022-10-09T08:35:01.934Z,63.20
2022-10-09T08:37:28.529Z,63.32
2022-10-09T08:39:55.095Z,63.52
2022-10-09T08:42:35.083Z,63.80
2022-10-09T08:45:02.426Z,64.03
2022-10-09T08:47:41.370Z,63.10
2022-10-09T08:50:24.059Z,62.56
2022-10-09T08:52:57.030Z,63.61
2022-10-09T08:55:32.682Z,63.45
2022-10-09T08:58:05.579Z,64.54
2022-10-09T09:00:43.771Z,64.67
2022-10-09T09:03:37.736Z,63.98
2022-10-09T09:06:17.127Z,64.00
2022-10-09T09:08:59.041Z,64.04
2022-10-09T09:11:44.283Z,64.05
2022-10-09T09:14:40.820Z,64.29
2022-10-09T09:17:29.100Z,64.51
2022-10-09T09:20:12.860Z,65.07
2022-10-09T09:22:43.566Z,65.39
2022-10-09T09:25:24.957Z,64.98
2022-10-09T09:27:58.375Z,64.82
2022-10-09T09:30:27.246Z,64.77
2022-10-09T09:33:16.952Z,64.53
2022-10-09T09:35:55.396Z,63.62
2022-10-09T09:38:22.015Z,64.28
2022-10-09T09:40:48.880Z,64.56
2022-10-09T09:43:20.437Z,64.25
2022-10-09T09:45:47.685Z,64.60
2022-10-09T09:48:34.469Z,64.41
2022-10-09T09:51:23.374Z,63.60
2022-10-09T09:54:19.117Z,63.60
2022-10-09T09:59:40.106Z,63.00
2022-10-09T10:02:06.709Z,63.31
2022-10-09T10:04:33.389Z,63.36
2022-10-09T10:06:59.979Z,62.68
2022-10-09T10:09:27.181Z,63.07
2022-10-09T10:11:59.320Z,62.59
2022-10-09T10:14:26.908Z,63.27
2022-10-09T10:16:55.527Z,63.66
2022-10-09T10:19:31.829Z,63.86
2022-10-09T10:22:04.167Z,63.90
2022-10-09T10:24:38.902Z,63.84
2022-10-09T10:27:11.781Z,62.90
2022-10-09T10:33:27.827Z,63.59
2022-10-09T10:35:56.332Z,63.75
2022-10-09T10:38:46.783Z,63.22
2022-10-09T10:41:26.691Z,62.94
2022-10-09T10:44:04.173Z,62.19
2022-10-09T10:46:41.917Z,62.54
2022-10-09T10:49:10.699Z,62.15
2022-10-09T10:51:46.642Z,61.12
2022-10-09T10:54:34.161Z,61.34
2022-10-09T10:57:16.845Z,61.54
2022-10-09T11:00:18.981Z,61.24
2022-10-09T11:03:20.748Z,61.32
2022-10-09T11:05:56.480Z,60.93
2022-10-09T11:08:29.156Z,61.54
2022-10-09T11:11:15.888Z,61.11
2022-10-09T11:14:14.564Z,61.45
2022-10-09T11:16:58.225Z,60.75
2022-10-09T11:19:54.042Z,60.56
2022-10-09T11:22:38.931Z,60.68
2022-10-09T11:25:20.265Z,60.50
2022-10-09T11:27:52.944Z,60.89
2022-10-09T11:30:19.886Z,60.56
2022-10-09T11:33:18.388Z,61.18
2022-10-09T11:36:01.787Z,61.06
2022-10-09T11:38:32.132Z,60.93
2022-10-09T11:41:00.050Z,61.28
2022-10-09T11:43:28.784Z,61.57
2022-10-09T11:45:55.320Z,61.70
2022-10-09T11:48:37.830Z,61.65
2022-10-09T11:51:19.870Z,60.75
2022-10-09T11:53:47.239Z,60.77
2022-10-09T11:56:29.170Z,61.49
2022-10-09T11:59:04.830Z,61.57
2022-10-09T12:01:40.978Z,61.62
2022-10-09T12:04:27.763Z,61.58
2022-10-09T12:07:09.479Z,61.34
2022-10-09T12:09:48.305Z,61.78
2022-10-09T12:12:18.450Z,61.11
2022-10-09T12:14:47.008Z,61.96
2022-10-09T12:17:22.570Z,61.32
2022-10-09T12:20:01.750Z,61.63
2022-10-09T12:22:41.588Z,61.16
2022-10-09T12:25:32.739Z,60.73
2022-10-09T12:28:00.599Z,61.58
2022-10-09T12:30:35.602Z,61.76
2022-10-09T12:33:15.286Z,61.49
2022-10-09T12:35:44.772Z,61.15
2022-10-09T12:38:43.881Z,61.16
2022-10-09T12:41:29.046Z,61.17
2022-10-09T12:43:56.612Z,61.65
2022-10-09T12:46:34.205Z,61.46
2022-10-09T12:49:02.199Z,61.60
2022-10-09T12:51:30.535Z,61.21
2022-10-09T12:53:57.179Z,61.40
2022-10-09T12:56:35.895Z,61.22
2022-10-09T12:59:02.934Z,61.65
2022-10-09T13:01:29.819Z,61.33
2022-10-09T13:04:04.305Z,60.80
2022-10-09T13:06:38.471Z,60.33
2022-10-09T13:09:07.350Z,60.43
2022-10-09T13:11:38.057Z,59.84
2022-10-09T13:14:05.006Z,60.32
2022-10-09T13:16:42.867Z,60.09
2022-10-09T13:19:24.906Z,60.84
2022-10-09T13:22:21.174Z,60.90
2022-10-09T13:24:50.300Z,60.72
2022-10-09T13:27:19.611Z,60.58
2022-10-09T13:29:47.674Z,60.80
2022-10-09T13:32:15.837Z,61.27
2022-10-09T13:34:42.689Z,60.24
2022-10-09T13:37:14.765Z,59.89
2022-10-09T13:39:41.760Z,59.80
2022-10-09T13:42:10.885Z,59.43
2022-10-09T13:44:37.457Z,59.49
2022-10-09T13:47:04.039Z,59.04
2022-10-09T13:49:30.674Z,59.21
2022-10-09T13:51:57.243Z,58.75
2022-10-09T13:54:24.711Z,58.09
2022-10-09T13:56:51.310Z,57.85
2022-10-09T13:59:17.902Z,57.79
2022-10-09T14:01:44.608Z,57.42
2022-10-09T14:04:11.326Z,56.81
2022-10-09T14:06:38.201Z,57.23
2022-10-09T14:09:05.521Z,57.37
2022-10-09T14:11:32.384Z,56.47
2022-10-09T14:13:59.544Z,57.52
2022-10-09T14:16:26.938Z,56.76
2022-10-09T14:22:14.692Z,56.07
2022-10-09T14:24:41.348Z,55.76
2022-10-09T14:27:07.883Z,55.51
2022-10-09T14:29:34.416Z,55.95
2022-10-09T14:32:00.970Z,56.31
2022-10-09T14:34:27.510Z,56.11
2022-10-09T14:36:54.071Z,55.99
2022-10-09T14:39:20.746Z,55.28
2022-10-09T14:41:47.329Z,55.26
2022-10-09T14:44:13.907Z,55.68
2022-10-09T14:46:40.451Z,56.35
2022-10-09T14:49:08.137Z,56.77
2022-10-09T14:51:39.697Z,56.77
2022-10-09T14:54:07.540Z,55.75
2022-10-09T14:56:34.676Z,54.83
2022-10-09T14:59:01.319Z,54.66
2022-10-09T15:01:29.367Z,54.86
2022-10-09T15:03:56.034Z,54.91
2022-10-09T15:06:25.435Z,54.22
2022-10-09T15:08:55.041Z,54.27
2022-10-09T15:11:21.617Z,54.47
2022-10-09T15:13:48.180Z,53.98
2022-10-09T15:16:16.519Z,54.35
2022-10-09T15:18:43.362Z,54.65
2022-10-09T15:21:19.932Z,55.84
2022-10-09T15:23:47.003Z,57.31
2022-10-09T15:26:14.181Z,57.41
2022-10-09T15:28:42.657Z,58.17
2022-10-09T15:31:19.013Z,58.36
2022-10-09T15:33:45.555Z,58.47
2022-10-09T15:36:12.200Z,58.26
2022-10-09T15:38:38.768Z,58.74
2022-10-09T15:41:05.457Z,58.46
2022-10-09T15:43:37.526Z,58.72
2022-10-09T15:46:05.810Z,58.61
2022-10-09T15:48:32.377Z,59.18
2022-10-09T15:51:04.076Z,59.05
2022-10-09T15:53:30.765Z,59.53
2022-10-09T15:55:57.312Z,59.60
2022-10-09T15:58:23.853Z,59.37
2022-10-09T16:00:51.052Z,60.04
2022-10-09T16:03:19.075Z,60.21
2022-10-09T16:05:49.522Z,60.26
2022-10-09T16:08:17.243Z,60.60
2022-10-09T16:10:49.194Z,61.16
2022-10-09T16:13:16.130Z,61.34
2022-10-09T16:15:48.924Z,61.50
2022-10-09T16:18:23.432Z,61.69
2022-10-09T16:20:50.406Z,61.43
2022-10-09T16:23:17.899Z,61.70
2022-10-09T16:25:44.495Z,62.04
2022-10-09T16:28:12.316Z,61.53
2022-10-09T16:30:44.437Z,62.08
2022-10-09T16:33:12.905Z,61.93
2022-10-09T16:35:39.999Z,61.68
2022-10-09T16:38:06.726Z,62.36
2022-10-09T16:40:57.402Z,62.04
2022-10-09T16:43:20.273Z,61.77
2022-10-09T16:45:46.855Z,61.86
2022-10-09T16:48:13.404Z,62.44
2022-10-09T16:50:42.285Z,62.26
2022-10-09T16:53:08.868Z,62.38
2022-10-09T16:55:35.441Z,62.46
2022-10-09T16:58:02.340Z,62.52
2022-10-09T17:00:29.228Z,62.54
2022-10-09T17:02:56.818Z,61.75
2022-10-09T17:05:25.454Z,62.57
2022-10-09T17:07:52.478Z,62.19
2022-10-09T17:10:19.454Z,62.59
2022-10-09T17:12:46.105Z,62.42
2022-10-09T17:15:13.561Z,62.45
2022-10-09T17:17:40.909Z,62.84
2022-10-09T17:20:08.084Z,62.40
2022-10-09T17:22:34.702Z,62.50
2022-10-09T17:25:01.275Z,62.39
2022-10-09T17:27:28.177Z,62.03
2022-10-09T17:29:54.892Z,61.86
2022-10-09T17:32:21.538Z,62.14
2022-10-09T17:34:48.152Z,62.58
2022-10-09T17:37:14.705Z,61.81
2022-10-09T17:39:44.143Z,62.17
2022-10-09T17:42:12.171Z,62.12
2022-10-09T17:44:38.710Z,61.16
2022-10-09T17:47:06.190Z,61.53
2022-10-09T17:49:32.804Z,61.19
2022-10-09T17:51:59.363Z,61.97
2022-10-09T17:54:26.090Z,61.83
2022-10-09T17:56:52.630Z,61.66
2022-10-09T17:59:19.212Z,61.80
2022-10-09T18:01:45.796Z,61.69
2022-10-09T18:04:15.549Z,62.10
2022-10-09T18:06:42.287Z,61.76
2022-10-09T18:09:09.036Z,62.05
2022-10-09T18:11:35.689Z,62.61
2022-10-09T18:14:03.736Z,62.54
2022-10-09T18:16:35.753Z,61.76
2022-10-09T18:19:12.233Z,61.57
2022-10-09T18:21:44.822Z,62.30
2022-10-09T18:24:12.183Z,62.46
2022-10-09T18:26:39.260Z,62.57
2022-10-09T18:29:05.935Z,62.13
2022-10-09T18:31:32.630Z,61.53
2022-10-09T18:34:00.045Z,61.87
2022-10-09T18:36:31.803Z,61.52
2022-10-09T18:39:16.557Z,61.58
2022-10-09T18:41:43.756Z,61.28
2022-10-09T18:44:17.321Z,61.02
2022-10-09T18:46:49.835Z,61.69
2022-10-09T18:49:18.809Z,61.39
2022-10-09T18:51:46.035Z,60.69
2022-10-09T18:54:17.933Z,61.07
2022-10-09T18:56:45.208Z,60.97
2022-10-09T18:59:14.309Z,60.56
2022-10-09T19:01:41.018Z,60.63
2022-10-09T19:04:08.088Z,61.24
2022-10-09T19:06:34.724Z,61.48
2022-10-09T19:09:01.474Z,61.86
2022-10-09T19:11:29.573Z,60.77
2022-10-09T19:13:56.600Z,60.98
2022-10-09T19:16:24.253Z,61.39
2022-10-09T19:18:53.312Z,60.87
2022-10-09T19:21:19.911Z,60.49
2022-10-09T19:23:48.282Z,60.29
2022-10-09T19:26:14.842Z,60.49
2022-10-09T19:28:41.572Z,60.53
2022-10-09T19:31:09.827Z,61.39
2022-10-09T19:33:37.947Z,60.95
2022-10-09T19:36:05.676Z,60.67
2022-10-09T19:38:32.888Z,60.63
2022-10-09T19:41:04.665Z,60.30
2022-10-09T19:43:31.885Z,61.20
2022-10-09T19:46:03.636Z,60.66
2022-10-09T19:48:30.589Z,60.53
2022-10-09T19:50:57.249Z,60.17
2022-10-09T19:53:23.834Z,60.07
2022-10-09T19:55:50.368Z,60.06
2022-10-09T19:58:17.971Z,59.87
2022-10-09T20:00:46.618Z,60.26
2022-10-09T20:03:13.200Z,60.66
2022-10-09T20:05:39.771Z,60.42
2022-10-09T20:08:06.571Z,59.82
2022-10-09T20:10:36.432Z,59.99
2022-10-09T20:13:03.615Z,59.89
2022-10-09T20:15:30.527Z,59.66
2022-10-09T20:17:57.162Z,59.37
2022-10-09T20:20:24.181Z,60.32
2022-10-09T20:22:50.929Z,59.76
2022-10-09T20:25:18.043Z,60.22
2022-10-09T20:27:44.573Z,59.76
2022-10-09T20:30:11.716Z,59.85
2022-10-09T20:32:38.272Z,60.12
2022-10-09T20:35:05.394Z,59.75
2022-10-09T20:37:31.992Z,59.79
2022-10-09T20:39:58.518Z,59.50
2022-10-09T20:42:25.246Z,59.48
2022-10-09T20:44:51.788Z,60.18
2022-10-09T20:47:18.315Z,60.00
2022-10-09T20:49:44.878Z,59.63
2022-10-09T20:52:11.435Z,60.04
2022-10-09T20:54:37.976Z,59.13
2022-10-09T20:57:04.534Z,60.04
2022-10-09T20:59:31.275Z,59.58
2022-10-09T21:01:57.863Z,59.19
2022-10-09T21:04:24.461Z,59.17
2022-10-09T21:06:51.017Z,59.51
2022-10-09T21:09:17.599Z,59.92
2022-10-09T21:11:45.776Z,59.20
2022-10-09T21:14:12.402Z,59.80
2022-10-09T21:16:38.946Z,59.84
2022-10-09T21:19:05.966Z,59.43
2022-10-09T21:21:32.656Z,59.51
2022-10-09T21:24:00.062Z,58.89
2022-10-09T21:26:28.036Z,59.33
2022-10-09T21:28:59.395Z,59.37
2022-10-09T21:31:28.597Z,58.98
2022-10-09T21:33:55.865Z,59.22
2022-10-09T21:37:02.226Z,59.30
2022-10-09T21:39:30.650Z,59.17
2022-10-09T21:41:57.218Z,59.75
2022-10-09T21:44:23.785Z,59.10
2022-10-09T21:46:50.313Z,59.67
2022-10-09T21:49:20.638Z,59.77
2022-10-09T21:51:47.463Z,59.33
2022-10-09T21:54:14.513Z,59.94
2022-10-09T21:56:41.214Z,59.08
2022-10-09T21:59:08.164Z,59.35
2022-10-09T22:01:34.964Z,59.42
2022-10-09T22:04:01.666Z,59.01
2022-10-09T22:06:28.204Z,58.75
2022-10-09T22:08:54.751Z,58.72
2022-10-09T22:11:21.348Z,58.85
2022-10-09T22:13:47.960Z,58.58
2022-10-09T22:16:15.558Z,58.62
2022-10-09T22:18:42.305Z,58.72
2022-10-09T22:21:12.495Z,58.61
2022-10-09T22:23:39.187Z,58.92
2022-10-09T22:26:10.075Z,59.14
2022-10-09T22:28:36.678Z,59.19
2022-10-09T22:31:35.803Z,58.36
2022-10-09T22:34:02.813Z,58.89
2022-10-09T22:36:31.911Z,58.32
2022-10-09T22:39:00.345Z,59.00
2022-10-09T22:41:27.863Z,58.97
2022-10-09T22:43:56.797Z,58.86
2022-10-09T22:46:31.337Z,58.91
2022-10-09T22:48:58.158Z,58.40
2022-10-09T22:51:27.190Z,58.16
2022-10-09T22:53:55.205Z,58.41
2022-10-09T22:56:24.360Z,58.58
2022-10-09T22:58:52.988Z,58.39
2022-10-09T23:01:44.188Z,58.04
2022-10-09T23:04:12.684Z,57.93
2022-10-09T23:06:40.155Z,58.42
2022-10-09T23:09:08.553Z,58.18
2022-10-09T23:11:35.552Z,58.31
2022-10-09T23:14:02.460Z,57.80
2022-10-09T23:16:29.975Z,58.49
2022-10-09T23:18:58.196Z,57.83
2022-10-09T23:21:25.156Z,57.83
2022-10-09T23:23:52.493Z,58.63
2022-10-09T23:26:21.971Z,57.88
2022-10-09T23:28:59.721Z,58.61
2022-10-09T23:31:26.940Z,57.65
2022-10-09T23:33:53.885Z,58.43
2022-10-09T23:36:23.618Z,58.08
2022-10-09T23:38:50.182Z,57.67
2022-10-09T23:41:19.581Z,57.68
2022-10-09T23:43:46.710Z,57.70
2022-10-09T23:46:18.691Z,58.27
2022-10-09T23:48:46.212Z,57.62
2022-10-09T23:51:14.106Z,57.89
2022-10-09T23:53:41.220Z,57.64
2022-10-09T23:56:28.927Z,57.77
2022-10-09T23:58:56.394Z,57.70
